sensor_id;sensor_type;location;lat;lon;timestamp;P1;durP1;ratioP1;P2;durP2;ratioP2
7215;SDS011;3649;48.798;9.798;2022-09-02T00:01:35;4.60;;;4.20;;
7215;SDS011;3649;48.798;9.798;2022-09-02T00:04:09;4.00;;;3.70;;
7215;SDS011;3649;48.798;9.798;2022-09-02T00:06:45;4.33;;;3.90;;
7215;SDS011;3649;48.798;9.798;2022-09-02T00:09:15;3.93;;;3.40;;
7215;SDS011;3649;48.798;9.798;2022-09-02T00:11:45;3.70;;;3.37;;
7215;SDS011;3649;48.798;9.798;2022-09-02T00:14:17;3.37;;;3.00;;
7215;SDS011;3649;48.798;9.798;2022-09-02T00:16:50;4.57;;;2.90;;
7215;SDS011;3649;48.798;9.798;2022-09-02T00:19:18;5.00;;;2.90;;
7215;SDS011;3649;48.798;9.798;2022-09-02T00:21:50;3.97;;;3.37;;
7215;SDS011;3649;48.798;9.798;2022-09-02T00:24:19;3.93;;;3.23;;
7215;SDS011;3649;48.798;9.798;2022-09-02T00:26:49;3.30;;;3.00;;
7215;SDS011;3649;48.798;9.798;2022-09-02T00:29:21;3.90;;;3.10;;
7215;SDS011;3649;48.798;9.798;2022-09-02T00:31:49;5.63;;;3.23;;
7215;SDS011;3649;48.798;9.798;2022-09-02T00:34:16;3.77;;;3.47;;
7215;SDS011;3649;48.798;9.798;2022-09-02T00:36:43;3.83;;;3.30;;
7215;SDS011;3649;48.798;9.798;2022-09-02T00:39:11;3.60;;;3.30;;
7215;SDS011;3649;48.798;9.798;2022-09-02T00:41:39;3.23;;;2.90;;
7215;SDS011;3649;48.798;9.798;2022-09-02T00:44:09;4.10;;;3.10;;
7215;SDS011;3649;48.798;9.798;2022-09-02T00:46:38;4.33;;;2.97;;
7215;SDS011;3649;48.798;9.798;2022-09-02T00:51:43;5.37;;;3.10;;
7215;SDS011;3649;48.798;9.798;2022-09-02T00:54:15;5.17;;;3.27;;
7215;SDS011;3649;48.798;9.798;2022-09-02T00:56:45;3.43;;;3.13;;
7215;SDS011;3649;48.798;9.798;2022-09-02T01:02:10;3.73;;;3.10;;
7215;SDS011;3649;48.798;9.798;2022-09-02T01:04:38;3.23;;;2.80;;
7215;SDS011;3649;48.798;9.798;2022-09-02T01:07:08;2.67;;;2.50;;
7215;SDS011;3649;48.798;9.798;2022-09-02T01:09:35;2.80;;;2.60;;
7215;SDS011;3649;48.798;9.798;2022-09-02T01:12:03;4.20;;;2.97;;
7215;SDS011;3649;48.798;9.798;2022-09-02T01:14:30;3.10;;;2.80;;
7215;SDS011;3649;48.798;9.798;2022-09-02T01:16:58;3.13;;;2.87;;
7215;SDS011;3649;48.798;9.798;2022-09-02T01:19:34;3.00;;;2.80;;
7215;SDS011;3649;48.798;9.798;2022-09-02T01:22:14;2.93;;;2.73;;
7215;SDS011;3649;48.798;9.798;2022-09-02T01:24:43;3.00;;;2.80;;
7215;SDS011;3649;48.798;9.798;2022-09-02T01:27:12;3.87;;;2.93;;
7215;SDS011;3649;48.798;9.798;2022-09-02T01:29:41;3.60;;;2.60;;
7215;SDS011;3649;48.798;9.798;2022-09-02T01:32:09;4.83;;;3.00;;
7215;SDS011;3649;48.798;9.798;2022-09-02T01:34:37;3.30;;;2.90;;
7215;SDS011;3649;48.798;9.798;2022-09-02T01:37:04;3.23;;;2.93;;
7215;SDS011;3649;48.798;9.798;2022-09-02T01:39:30;3.20;;;2.90;;
7215;SDS011;3649;48.798;9.798;2022-09-02T01:41:57;4.07;;;2.60;;
7215;SDS011;3649;48.798;9.798;2022-09-02T01:44:25;3.03;;;2.83;;
7215;SDS011;3649;48.798;9.798;2022-09-02T01:46:53;3.50;;;3.23;;
7215;SDS011;3649;48.798;9.798;2022-09-02T01:49:20;3.27;;;3.07;;
7215;SDS011;3649;48.798;9.798;2022-09-02T01:51:48;3.53;;;3.10;;
7215;SDS011;3649;48.798;9.798;2022-09-02T01:54:15;7.50;;;3.00;;
7215;SDS011;3649;48.798;9.798;2022-09-02T01:56:41;3.30;;;3.10;;
7215;SDS011;3649;48.798;9.798;2022-09-02T01:59:08;3.50;;;3.07;;
7215;SDS011;3649;48.798;9.798;2022-09-02T02:01:36;3.20;;;2.93;;
7215;SDS011;3649;48.798;9.798;2022-09-02T02:04:03;3.37;;;3.07;;
7215;SDS011;3649;48.798;9.798;2022-09-02T02:06:40;3.23;;;3.03;;
7215;SDS011;3649;48.798;9.798;2022-09-02T02:09:09;3.23;;;2.50;;
7215;SDS011;3649;48.798;9.798;2022-09-02T02:11:37;3.07;;;2.80;;
7215;SDS011;3649;48.798;9.798;2022-09-02T02:14:05;5.97;;;2.97;;
7215;SDS011;3649;48.798;9.798;2022-09-02T02:16:32;3.73;;;3.23;;
7215;SDS011;3649;48.798;9.798;2022-09-02T02:18:59;2.97;;;2.77;;
7215;SDS011;3649;48.798;9.798;2022-09-02T02:21:26;3.07;;;2.67;;
7215;SDS011;3649;48.798;9.798;2022-09-02T02:23:53;7.67;;;2.80;;
7215;SDS011;3649;48.798;9.798;2022-09-02T02:26:20;4.97;;;3.30;;
7215;SDS011;3649;48.798;9.798;2022-09-02T02:28:47;2.93;;;2.73;;
7215;SDS011;3649;48.798;9.798;2022-09-02T02:31:14;3.93;;;2.80;;
7215;SDS011;3649;48.798;9.798;2022-09-02T02:33:41;3.20;;;2.90;;
7215;SDS011;3649;48.798;9.798;2022-09-02T02:36:08;3.53;;;3.23;;
7215;SDS011;3649;48.798;9.798;2022-09-02T02:38:36;7.63;;;3.23;;
7215;SDS011;3649;48.798;9.798;2022-09-02T02:41:04;5.17;;;3.00;;
7215;SDS011;3649;48.798;9.798;2022-09-02T02:43:32;3.40;;;3.10;;
7215;SDS011;3649;48.798;9.798;2022-09-02T02:46:00;4.40;;;3.20;;
7215;SDS011;3649;48.798;9.798;2022-09-02T02:48:27;4.77;;;3.13;;
7215;SDS011;3649;48.798;9.798;2022-09-02T02:50:54;4.27;;;3.20;;
7215;SDS011;3649;48.798;9.798;2022-09-02T02:53:21;4.57;;;3.50;;
7215;SDS011;3649;48.798;9.798;2022-09-02T02:55:48;4.00;;;3.60;;
7215;SDS011;3649;48.798;9.798;2022-09-02T02:58:16;4.97;;;3.30;;
7215;SDS011;3649;48.798;9.798;2022-09-02T03:00:43;3.93;;;3.50;;
7215;SDS011;3649;48.798;9.798;2022-09-02T03:03:12;6.07;;;4.00;;
7215;SDS011;3649;48.798;9.798;2022-09-02T03:05:39;3.40;;;3.10;;
7215;SDS011;3649;48.798;9.798;2022-09-02T03:08:07;5.97;;;3.17;;
7215;SDS011;3649;48.798;9.798;2022-09-02T03:10:36;3.60;;;3.20;;
7215;SDS011;3649;48.798;9.798;2022-09-02T03:13:03;3.33;;;3.13;;
7215;SDS011;3649;48.798;9.798;2022-09-02T03:15:31;5.57;;;3.67;;
7215;SDS011;3649;48.798;9.798;2022-09-02T03:17:59;4.03;;;3.57;;
7215;SDS011;3649;48.798;9.798;2022-09-02T03:20:26;3.23;;;3.03;;
7215;SDS011;3649;48.798;9.798;2022-09-02T03:22:54;4.47;;;3.10;;
7215;SDS011;3649;48.798;9.798;2022-09-02T03:25:22;4.87;;;3.57;;
7215;SDS011;3649;48.798;9.798;2022-09-02T03:27:50;3.60;;;3.10;;
7215;SDS011;3649;48.798;9.798;2022-09-02T03:30:19;3.70;;;3.33;;
7215;SDS011;3649;48.798;9.798;2022-09-02T03:32:47;3.17;;;2.93;;
7215;SDS011;3649;48.798;9.798;2022-09-02T03:35:16;5.77;;;2.63;;
7215;SDS011;3649;48.798;9.798;2022-09-02T03:37:45;3.57;;;2.63;;
7215;SDS011;3649;48.798;9.798;2022-09-02T03:40:14;3.57;;;2.80;;
7215;SDS011;3649;48.798;9.798;2022-09-02T03:42:45;6.20;;;3.00;;
7215;SDS011;3649;48.798;9.798;2022-09-02T03:45:12;4.40;;;3.53;;
7215;SDS011;3649;48.798;9.798;2022-09-02T03:47:43;4.27;;;3.00;;
7215;SDS011;3649;48.798;9.798;2022-09-02T03:50:20;3.90;;;2.87;;
7215;SDS011;3649;48.798;9.798;2022-09-02T03:52:57;3.50;;;3.20;;
7215;SDS011;3649;48.798;9.798;2022-09-02T03:55:25;6.37;;;3.40;;
7215;SDS011;3649;48.798;9.798;2022-09-02T03:57:52;3.50;;;3.20;;
7215;SDS011;3649;48.798;9.798;2022-09-02T04:00:22;3.07;;;2.87;;
7215;SDS011;3649;48.798;9.798;2022-09-02T04:02:50;3.37;;;2.60;;
7215;SDS011;3649;48.798;9.798;2022-09-02T04:05:18;3.47;;;3.27;;
7215;SDS011;3649;48.798;9.798;2022-09-02T04:07:45;3.47;;;3.07;;
7215;SDS011;3649;48.798;9.798;2022-09-02T04:10:12;3.37;;;2.90;;
7215;SDS011;3649;48.798;9.798;2022-09-02T04:12:40;3.77;;;3.27;;
7215;SDS011;3649;48.798;9.798;2022-09-02T04:15:07;5.30;;;3.33;;
7215;SDS011;3649;48.798;9.798;2022-09-02T04:17:36;5.23;;;3.33;;
7215;SDS011;3649;48.798;9.798;2022-09-02T04:20:05;3.43;;;3.13;;
7215;SDS011;3649;48.798;9.798;2022-09-02T04:22:34;4.53;;;3.00;;
7215;SDS011;3649;48.798;9.798;2022-09-02T04:25:02;3.30;;;3.00;;
7215;SDS011;3649;48.798;9.798;2022-09-02T04:27:29;4.37;;;2.73;;
7215;SDS011;3649;48.798;9.798;2022-09-02T04:29:56;4.33;;;2.77;;
7215;SDS011;3649;48.798;9.798;2022-09-02T04:32:24;4.00;;;3.70;;
7215;SDS011;3649;48.798;9.798;2022-09-02T04:34:51;3.33;;;2.80;;
7215;SDS011;3649;48.798;9.798;2022-09-02T04:37:18;3.97;;;3.20;;
7215;SDS011;3649;48.798;9.798;2022-09-02T04:39:45;3.90;;;3.17;;
7215;SDS011;3649;48.798;9.798;2022-09-02T04:42:12;3.43;;;3.13;;
7215;SDS011;3649;48.798;9.798;2022-09-02T04:44:39;3.40;;;3.10;;
7215;SDS011;3649;48.798;9.798;2022-09-02T04:47:06;3.50;;;3.20;;
7215;SDS011;3649;48.798;9.798;2022-09-02T04:49:33;3.90;;;3.27;;
7215;SDS011;3649;48.798;9.798;2022-09-02T04:52:00;4.37;;;3.27;;
7215;SDS011;3649;48.798;9.798;2022-09-02T04:54:27;4.27;;;3.70;;
7215;SDS011;3649;48.798;9.798;2022-09-02T04:56:54;3.37;;;3.13;;
7215;SDS011;3649;48.798;9.798;2022-09-02T04:59:21;5.23;;;3.23;;
7215;SDS011;3649;48.798;9.798;2022-09-02T05:01:49;4.93;;;3.13;;
7215;SDS011;3649;48.798;9.798;2022-09-02T05:04:16;3.90;;;3.50;;
7215;SDS011;3649;48.798;9.798;2022-09-02T05:06:43;4.73;;;3.40;;
7215;SDS011;3649;48.798;9.798;2022-09-02T05:09:12;3.87;;;3.10;;
7215;SDS011;3649;48.798;9.798;2022-09-02T05:11:39;4.87;;;3.33;;
7215;SDS011;3649;48.798;9.798;2022-09-02T05:14:06;4.10;;;3.57;;
7215;SDS011;3649;48.798;9.798;2022-09-02T05:16:35;4.23;;;3.50;;
7215;SDS011;3649;48.798;9.798;2022-09-02T05:19:04;6.03;;;3.10;;
7215;SDS011;3649;48.798;9.798;2022-09-02T05:21:33;4.87;;;3.37;;
7215;SDS011;3649;48.798;9.798;2022-09-02T05:24:04;4.57;;;3.00;;
7215;SDS011;3649;48.798;9.798;2022-09-02T05:26:31;3.50;;;3.20;;
7215;SDS011;3649;48.798;9.798;2022-09-02T05:29:02;4.60;;;3.27;;
7215;SDS011;3649;48.798;9.798;2022-09-02T05:31:32;4.93;;;3.27;;
7215;SDS011;3649;48.798;9.798;2022-09-02T05:33:59;4.50;;;3.13;;
7215;SDS011;3649;48.798;9.798;2022-09-02T05:36:26;11.10;;;3.63;;
7215;SDS011;3649;48.798;9.798;2022-09-02T05:38:53;4.73;;;3.83;;
7215;SDS011;3649;48.798;9.798;2022-09-02T05:41:21;3.73;;;3.43;;
7215;SDS011;3649;48.798;9.798;2022-09-02T05:43:50;3.40;;;3.10;;
7215;SDS011;3649;48.798;9.798;2022-09-02T05:46:18;3.77;;;3.47;;
7215;SDS011;3649;48.798;9.798;2022-09-02T05:48:47;3.13;;;2.90;;
7215;SDS011;3649;48.798;9.798;2022-09-02T05:51:54;3.30;;;2.73;;
7215;SDS011;3649;48.798;9.798;2022-09-02T05:54:26;6.57;;;3.50;;
7215;SDS011;3649;48.798;9.798;2022-09-02T05:56:56;3.73;;;3.10;;
7215;SDS011;3649;48.798;9.798;2022-09-02T05:59:25;4.70;;;3.13;;
7215;SDS011;3649;48.798;9.798;2022-09-02T06:01:54;3.87;;;3.10;;
7215;SDS011;3649;48.798;9.798;2022-09-02T06:04:22;3.77;;;3.33;;
7215;SDS011;3649;48.798;9.798;2022-09-02T06:06:49;3.47;;;3.13;;
7215;SDS011;3649;48.798;9.798;2022-09-02T06:09:18;6.53;;;2.50;;
7215;SDS011;3649;48.798;9.798;2022-09-02T06:11:47;4.80;;;3.20;;
7215;SDS011;3649;48.798;9.798;2022-09-02T06:14:16;5.97;;;3.60;;
7215;SDS011;3649;48.798;9.798;2022-09-02T06:16:47;2.53;;;2.33;;
7215;SDS011;3649;48.798;9.798;2022-09-02T06:19:16;5.97;;;2.93;;
7215;SDS011;3649;48.798;9.798;2022-09-02T06:21:46;3.57;;;2.67;;
7215;SDS011;3649;48.798;9.798;2022-09-02T06:24:14;5.37;;;3.37;;
7215;SDS011;3649;48.798;9.798;2022-09-02T06:26:41;3.00;;;2.43;;
7215;SDS011;3649;48.798;9.798;2022-09-02T06:29:09;4.93;;;3.20;;
7215;SDS011;3649;48.798;9.798;2022-09-02T06:31:39;2.80;;;2.60;;
7215;SDS011;3649;48.798;9.798;2022-09-02T06:34:10;4.80;;;2.70;;
7215;SDS011;3649;48.798;9.798;2022-09-02T06:36:39;3.03;;;2.80;;
7215;SDS011;3649;48.798;9.798;2022-09-02T06:39:09;3.23;;;2.93;;
7215;SDS011;3649;48.798;9.798;2022-09-02T06:41:37;3.10;;;2.83;;
7215;SDS011;3649;48.798;9.798;2022-09-02T06:44:06;3.90;;;3.60;;
7215;SDS011;3649;48.798;9.798;2022-09-02T06:46:35;3.90;;;2.90;;
7215;SDS011;3649;48.798;9.798;2022-09-02T06:49:06;4.50;;;3.10;;
7215;SDS011;3649;48.798;9.798;2022-09-02T06:51:38;5.03;;;2.77;;
7215;SDS011;3649;48.798;9.798;2022-09-02T06:54:08;6.53;;;2.63;;
7215;SDS011;3649;48.798;9.798;2022-09-02T06:56:39;4.27;;;3.23;;
7215;SDS011;3649;48.798;9.798;2022-09-02T06:59:14;4.10;;;2.70;;
7215;SDS011;3649;48.798;9.798;2022-09-02T07:01:42;2.83;;;2.60;;
7215;SDS011;3649;48.798;9.798;2022-09-02T07:04:10;3.33;;;3.03;;
7215;SDS011;3649;48.798;9.798;2022-09-02T07:06:55;6.80;;;4.03;;
7215;SDS011;3649;48.798;9.798;2022-09-02T07:09:24;5.63;;;4.27;;
7215;SDS011;3649;48.798;9.798;2022-09-02T07:12:00;4.77;;;3.27;;
7215;SDS011;3649;48.798;9.798;2022-09-02T07:14:31;4.90;;;3.13;;
7215;SDS011;3649;48.798;9.798;2022-09-02T07:17:02;5.17;;;2.20;;
7215;SDS011;3649;48.798;9.798;2022-09-02T07:19:29;3.83;;;2.30;;
7215;SDS011;3649;48.798;9.798;2022-09-02T07:21:56;4.17;;;2.20;;
7215;SDS011;3649;48.798;9.798;2022-09-02T07:24:24;3.40;;;1.90;;
7215;SDS011;3649;48.798;9.798;2022-09-02T07:26:51;2.73;;;1.87;;
7215;SDS011;3649;48.798;9.798;2022-09-02T07:29:21;2.77;;;2.40;;
7215;SDS011;3649;48.798;9.798;2022-09-02T07:31:49;5.80;;;1.87;;
7215;SDS011;3649;48.798;9.798;2022-09-02T07:34:16;2.37;;;1.63;;
7215;SDS011;3649;48.798;9.798;2022-09-02T07:36:44;3.87;;;1.90;;
7215;SDS011;3649;48.798;9.798;2022-09-02T07:39:12;4.23;;;1.90;;
7215;SDS011;3649;48.798;9.798;2022-09-02T07:41:40;4.17;;;1.90;;
7215;SDS011;3649;48.798;9.798;2022-09-02T07:44:08;1.70;;;1.37;;
7215;SDS011;3649;48.798;9.798;2022-09-02T07:46:36;2.00;;;1.80;;
7215;SDS011;3649;48.798;9.798;2022-09-02T07:49:05;3.07;;;2.07;;
7215;SDS011;3649;48.798;9.798;2022-09-02T07:51:35;2.17;;;1.70;;
7215;SDS011;3649;48.798;9.798;2022-09-02T07:54:05;3.77;;;2.10;;
7215;SDS011;3649;48.798;9.798;2022-09-02T07:56:32;2.57;;;1.47;;
7215;SDS011;3649;48.798;9.798;2022-09-02T07:58:59;4.10;;;1.60;;
7215;SDS011;3649;48.798;9.798;2022-09-02T08:01:27;2.27;;;1.40;;
7215;SDS011;3649;48.798;9.798;2022-09-02T08:03:54;1.30;;;1.30;;
7215;SDS011;3649;48.798;9.798;2022-09-02T08:06:26;4.83;;;1.60;;
7215;SDS011;3649;48.798;9.798;2022-09-02T08:09:01;2.03;;;1.23;;
7215;SDS011;3649;48.798;9.798;2022-09-02T08:11:30;2.63;;;1.60;;
7215;SDS011;3649;48.798;9.798;2022-09-02T08:13:58;3.33;;;1.53;;
7215;SDS011;3649;48.798;9.798;2022-09-02T08:16:26;1.73;;;1.20;;
7215;SDS011;3649;48.798;9.798;2022-09-02T08:18:54;2.03;;;1.33;;
7215;SDS011;3649;48.798;9.798;2022-09-02T08:21:21;1.37;;;1.27;;
7215;SDS011;3649;48.798;9.798;2022-09-02T08:23:48;4.57;;;1.63;;
7215;SDS011;3649;48.798;9.798;2022-09-02T08:26:16;1.07;;;1.07;;
7215;SDS011;3649;48.798;9.798;2022-09-02T08:28:44;2.20;;;1.33;;
7215;SDS011;3649;48.798;9.798;2022-09-02T08:31:11;1.50;;;1.20;;
7215;SDS011;3649;48.798;9.798;2022-09-02T08:33:38;3.17;;;1.33;;
7215;SDS011;3649;48.798;9.798;2022-09-02T08:36:07;3.57;;;1.43;;
7215;SDS011;3649;48.798;9.798;2022-09-02T08:38:36;2.77;;;1.27;;
7215;SDS011;3649;48.798;9.798;2022-09-02T08:43:55;4.60;;;1.47;;
7215;SDS011;3649;48.798;9.798;2022-09-02T08:46:25;1.87;;;1.10;;
7215;SDS011;3649;48.798;9.798;2022-09-02T08:49:03;1.73;;;1.40;;
7215;SDS011;3649;48.798;9.798;2022-09-02T08:51:56;1.77;;;1.43;;
7215;SDS011;3649;48.798;9.798;2022-09-02T08:57:09;5.00;;;1.37;;
7215;SDS011;3649;48.798;9.798;2022-09-02T08:59:37;4.37;;;1.10;;
7215;SDS011;3649;48.798;9.798;2022-09-02T09:16:30;2.97;;;1.30;;
7215;SDS011;3649;48.798;9.798;2022-09-02T09:21:42;2.60;;;1.27;;
7215;SDS011;3649;48.798;9.798;2022-09-02T09:24:16;1.37;;;1.23;;
7215;SDS011;3649;48.798;9.798;2022-09-02T09:26:46;5.27;;;1.40;;
7215;SDS011;3649;48.798;9.798;2022-09-02T09:29:13;3.43;;;1.37;;
7215;SDS011;3649;48.798;9.798;2022-09-02T09:31:40;2.23;;;1.07;;
7215;SDS011;3649;48.798;9.798;2022-09-02T09:34:11;1.10;;;1.10;;
7215;SDS011;3649;48.798;9.798;2022-09-02T09:39:16;2.47;;;1.20;;
7215;SDS011;3649;48.798;9.798;2022-09-02T09:41:47;1.93;;;1.10;;
7215;SDS011;3649;48.798;9.798;2022-09-02T09:44:35;2.07;;;0.97;;
7215;SDS011;3649;48.798;9.798;2022-09-02T09:47:05;1.47;;;1.10;;
7215;SDS011;3649;48.798;9.798;2022-09-02T09:49:47;1.37;;;1.10;;
7215;SDS011;3649;48.798;9.798;2022-09-02T09:52:24;4.53;;;1.33;;
7215;SDS011;3649;48.798;9.798;2022-09-02T09:55:06;1.17;;;1.10;;
7215;SDS011;3649;48.798;9.798;2022-09-02T09:57:39;10.47;;;1.20;;
7215;SDS011;3649;48.798;9.798;2022-09-02T10:02:58;2.63;;;1.23;;
7215;SDS011;3649;48.798;9.798;2022-09-02T10:05:31;2.90;;;1.10;;
7215;SDS011;3649;48.798;9.798;2022-09-02T10:08:03;3.30;;;1.10;;
7215;SDS011;3649;48.798;9.798;2022-09-02T10:11:05;2.33;;;0.90;;
7215;SDS011;3649;48.798;9.798;2022-09-02T10:13:34;3.33;;;1.17;;
7215;SDS011;3649;48.798;9.798;2022-09-02T10:25:16;1.50;;;1.37;;
7215;SDS011;3649;48.798;9.798;2022-09-02T10:28:05;1.10;;;1.00;;
7215;SDS011;3649;48.798;9.798;2022-09-02T10:30:50;4.13;;;1.13;;
7215;SDS011;3649;48.798;9.798;2022-09-02T10:33:45;1.90;;;0.90;;
7215;SDS011;3649;48.798;9.798;2022-09-02T10:36:33;1.23;;;0.90;;
7215;SDS011;3649;48.798;9.798;2022-09-02T10:39:28;6.10;;;1.20;;
7215;SDS011;3649;48.798;9.798;2022-09-02T10:42:06;1.93;;;1.10;;
7215;SDS011;3649;48.798;9.798;2022-09-02T10:44:47;2.33;;;1.27;;
7215;SDS011;3649;48.798;9.798;2022-09-02T10:47:36;0.80;;;0.80;;
7215;SDS011;3649;48.798;9.798;2022-09-02T11:00:27;1.17;;;0.90;;
7215;SDS011;3649;48.798;9.798;2022-09-02T11:05:46;1.60;;;1.10;;
7215;SDS011;3649;48.798;9.798;2022-09-02T11:08:19;1.60;;;1.10;;
7215;SDS011;3649;48.798;9.798;2022-09-02T11:16:43;1.00;;;1.00;;
7215;SDS011;3649;48.798;9.798;2022-09-02T11:19:19;1.23;;;1.13;;
7215;SDS011;3649;48.798;9.798;2022-09-02T11:24:35;2.53;;;1.10;;
7215;SDS011;3649;48.798;9.798;2022-09-02T11:27:14;1.13;;;0.90;;
7215;SDS011;3649;48.798;9.798;2022-09-02T11:30:17;2.87;;;1.00;;
7215;SDS011;3649;48.798;9.798;2022-09-02T11:32:55;2.47;;;1.10;;
7215;SDS011;3649;48.798;9.798;2022-09-02T11:35:27;1.60;;;1.03;;
7215;SDS011;3649;48.798;9.798;2022-09-02T11:38:00;2.40;;;1.20;;
7215;SDS011;3649;48.798;9.798;2022-09-02T11:51:07;2.27;;;1.13;;
7215;SDS011;3649;48.798;9.798;2022-09-02T11:53:54;1.57;;;1.00;;
7215;SDS011;3649;48.798;9.798;2022-09-02T11:56:30;1.07;;;1.07;;
7215;SDS011;3649;48.798;9.798;2022-09-02T11:59:05;1.10;;;1.00;;
7215;SDS011;3649;48.798;9.798;2022-09-02T12:01:37;1.00;;;1.00;;
7215;SDS011;3649;48.798;9.798;2022-09-02T12:04:23;1.03;;;1.03;;
7215;SDS011;3649;48.798;9.798;2022-09-02T12:17:39;1.33;;;1.20;;
7215;SDS011;3649;48.798;9.798;2022-09-02T12:23:04;1.40;;;1.30;;
7215;SDS011;3649;48.798;9.798;2022-09-02T12:25:33;2.23;;;0.93;;
7215;SDS011;3649;48.798;9.798;2022-09-02T12:33:28;1.37;;;1.27;;
7215;SDS011;3649;48.798;9.798;2022-09-02T12:35:56;1.63;;;1.00;;
7215;SDS011;3649;48.798;9.798;2022-09-02T12:38:25;2.23;;;1.00;;
7215;SDS011;3649;48.798;9.798;2022-09-02T12:40:54;4.37;;;1.07;;
7215;SDS011;3649;48.798;9.798;2022-09-02T12:49:08;1.10;;;1.10;;
7215;SDS011;3649;48.798;9.798;2022-09-02T12:55:00;0.93;;;0.90;;
7215;SDS011;3649;48.798;9.798;2022-09-02T12:57:20;3.20;;;1.10;;
7215;SDS011;3649;48.798;9.798;2022-09-02T13:00:24;1.20;;;1.10;;
7215;SDS011;3649;48.798;9.798;2022-09-02T13:25:39;2.53;;;1.10;;
7215;SDS011;3649;48.798;9.798;2022-09-02T13:31:14;1.37;;;1.10;;
7215;SDS011;3649;48.798;9.798;2022-09-02T13:33:56;2.13;;;1.27;;
7215;SDS011;3649;48.798;9.798;2022-09-02T13:36:38;1.47;;;1.33;;
7215;SDS011;3649;48.798;9.798;2022-09-02T13:39:09;1.33;;;1.00;;
7215;SDS011;3649;48.798;9.798;2022-09-02T13:41:41;1.43;;;1.00;;
7215;SDS011;3649;48.798;9.798;2022-09-02T13:44:09;1.40;;;1.30;;
7215;SDS011;3649;48.798;9.798;2022-09-02T13:46:42;1.43;;;1.17;;
7215;SDS011;3649;48.798;9.798;2022-09-02T13:49:17;3.37;;;1.53;;
7215;SDS011;3649;48.798;9.798;2022-09-02T13:51:45;2.87;;;1.10;;
7215;SDS011;3649;48.798;9.798;2022-09-02T13:54:13;1.27;;;1.20;;
7215;SDS011;3649;48.798;9.798;2022-09-02T13:56:48;3.07;;;1.30;;
7215;SDS011;3649;48.798;9.798;2022-09-02T13:59:29;1.33;;;1.23;;
7215;SDS011;3649;48.798;9.798;2022-09-02T14:01:57;1.83;;;1.20;;
7215;SDS011;3649;48.798;9.798;2022-09-02T14:04:24;4.10;;;1.10;;
7215;SDS011;3649;48.798;9.798;2022-09-02T14:06:52;1.10;;;1.10;;
7215;SDS011;3649;48.798;9.798;2022-09-02T14:09:21;1.30;;;1.20;;
7215;SDS011;3649;48.798;9.798;2022-09-02T14:11:52;1.97;;;1.27;;
7215;SDS011;3649;48.798;9.798;2022-09-02T14:14:20;0.97;;;0.97;;
7215;SDS011;3649;48.798;9.798;2022-09-02T14:16:49;2.33;;;1.20;;
7215;SDS011;3649;48.798;9.798;2022-09-02T14:21:54;2.17;;;1.07;;
7215;SDS011;3649;48.798;9.798;2022-09-02T14:24:24;0.93;;;0.93;;
7215;SDS011;3649;48.798;9.798;2022-09-02T14:26:53;5.40;;;1.20;;
7215;SDS011;3649;48.798;9.798;2022-09-02T14:29:25;1.27;;;1.17;;
7215;SDS011;3649;48.798;9.798;2022-09-02T14:32:28;0.90;;;0.90;;
7215;SDS011;3649;48.798;9.798;2022-09-02T14:35:08;1.83;;;1.00;;
7215;SDS011;3649;48.798;9.798;2022-09-02T14:37:48;1.03;;;1.00;;
7215;SDS011;3649;48.798;9.798;2022-09-02T14:40:16;1.20;;;1.10;;
7215;SDS011;3649;48.798;9.798;2022-09-02T14:42:48;1.23;;;1.13;;
7215;SDS011;3649;48.798;9.798;2022-09-02T14:45:32;3.90;;;1.27;;
7215;SDS011;3649;48.798;9.798;2022-09-02T14:48:01;3.53;;;1.20;;
7215;SDS011;3649;48.798;9.798;2022-09-02T14:50:36;1.80;;;1.10;;
7215;SDS011;3649;48.798;9.798;2022-09-02T14:53:05;1.13;;;1.00;;
7215;SDS011;3649;48.798;9.798;2022-09-02T14:58:11;2.87;;;1.27;;
7215;SDS011;3649;48.798;9.798;2022-09-02T15:00:38;1.50;;;1.20;;
7215;SDS011;3649;48.798;9.798;2022-09-02T15:03:05;1.10;;;1.00;;
7215;SDS011;3649;48.798;9.798;2022-09-02T15:05:32;1.97;;;1.10;;
7215;SDS011;3649;48.798;9.798;2022-09-02T15:07:59;1.27;;;1.23;;
7215;SDS011;3649;48.798;9.798;2022-09-02T15:10:26;1.43;;;1.33;;
7215;SDS011;3649;48.798;9.798;2022-09-02T15:12:53;1.90;;;1.03;;
7215;SDS011;3649;48.798;9.798;2022-09-02T15:15:22;1.67;;;1.00;;
7215;SDS011;3649;48.798;9.798;2022-09-02T15:17:50;0.90;;;0.90;;
7215;SDS011;3649;48.798;9.798;2022-09-02T15:20:17;3.70;;;1.47;;
7215;SDS011;3649;48.798;9.798;2022-09-02T15:22:47;1.87;;;1.20;;
7215;SDS011;3649;48.798;9.798;2022-09-02T15:25:14;1.97;;;1.53;;
7215;SDS011;3649;48.798;9.798;2022-09-02T15:27:41;3.47;;;1.13;;
7215;SDS011;3649;48.798;9.798;2022-09-02T15:30:07;3.17;;;1.70;;
7215;SDS011;3649;48.798;9.798;2022-09-02T15:32:36;1.03;;;1.03;;
7215;SDS011;3649;48.798;9.798;2022-09-02T15:35:04;4.43;;;1.37;;
7215;SDS011;3649;48.798;9.798;2022-09-02T15:37:32;1.27;;;1.20;;
7215;SDS011;3649;48.798;9.798;2022-09-02T15:40:04;2.47;;;1.50;;
7215;SDS011;3649;48.798;9.798;2022-09-02T15:42:33;1.27;;;1.27;;
7215;SDS011;3649;48.798;9.798;2022-09-02T15:45:02;4.47;;;1.70;;
7215;SDS011;3649;48.798;9.798;2022-09-02T15:47:33;2.70;;;1.07;;
7215;SDS011;3649;48.798;9.798;2022-09-02T15:50:00;2.57;;;1.30;;
7215;SDS011;3649;48.798;9.798;2022-09-02T15:52:27;1.00;;;0.90;;
7215;SDS011;3649;48.798;9.798;2022-09-02T15:54:54;3.33;;;1.20;;
7215;SDS011;3649;48.798;9.798;2022-09-02T15:57:21;2.60;;;1.20;;
7215;SDS011;3649;48.798;9.798;2022-09-02T15:59:48;3.00;;;1.07;;
7215;SDS011;3649;48.798;9.798;2022-09-02T16:02:16;1.00;;;1.00;;
7215;SDS011;3649;48.798;9.798;2022-09-02T16:04:43;1.40;;;1.30;;
7215;SDS011;3649;48.798;9.798;2022-09-02T16:07:10;4.33;;;1.37;;
7215;SDS011;3649;48.798;9.798;2022-09-02T16:09:42;1.50;;;1.00;;
7215;SDS011;3649;48.798;9.798;2022-09-02T16:12:09;1.30;;;1.30;;
7215;SDS011;3649;48.798;9.798;2022-09-02T16:14:36;1.37;;;1.20;;
7215;SDS011;3649;48.798;9.798;2022-09-02T16:17:03;3.37;;;1.30;;
7215;SDS011;3649;48.798;9.798;2022-09-02T16:19:30;1.27;;;1.00;;
7215;SDS011;3649;48.798;9.798;2022-09-02T16:21:57;2.53;;;1.20;;
7215;SDS011;3649;48.798;9.798;2022-09-02T16:24:24;2.80;;;1.27;;
7215;SDS011;3649;48.798;9.798;2022-09-02T16:26:50;1.03;;;1.00;;
7215;SDS011;3649;48.798;9.798;2022-09-02T16:29:17;1.10;;;1.10;;
7215;SDS011;3649;48.798;9.798;2022-09-02T16:31:45;2.10;;;1.30;;
7215;SDS011;3649;48.798;9.798;2022-09-02T16:34:33;4.57;;;1.10;;
7215;SDS011;3649;48.798;9.798;2022-09-02T16:37:00;4.33;;;1.67;;
7215;SDS011;3649;48.798;9.798;2022-09-02T16:39:26;1.40;;;1.30;;
7215;SDS011;3649;48.798;9.798;2022-09-02T16:41:53;1.53;;;1.30;;
7215;SDS011;3649;48.798;9.798;2022-09-02T16:44:23;1.67;;;1.13;;
7215;SDS011;3649;48.798;9.798;2022-09-02T16:46:51;2.10;;;1.10;;
7215;SDS011;3649;48.798;9.798;2022-09-02T16:49:19;1.80;;;1.30;;
7215;SDS011;3649;48.798;9.798;2022-09-02T16:51:47;1.90;;;1.10;;
7215;SDS011;3649;48.798;9.798;2022-09-02T16:54:24;1.70;;;1.60;;
7215;SDS011;3649;48.798;9.798;2022-09-02T16:56:57;1.27;;;1.17;;
7215;SDS011;3649;48.798;9.798;2022-09-02T16:59:25;1.63;;;1.33;;
7215;SDS011;3649;48.798;9.798;2022-09-02T17:01:52;1.53;;;1.20;;
7215;SDS011;3649;48.798;9.798;2022-09-02T17:04:19;3.37;;;1.30;;
7215;SDS011;3649;48.798;9.798;2022-09-02T17:06:46;5.17;;;1.40;;
7215;SDS011;3649;48.798;9.798;2022-09-02T17:09:13;1.63;;;1.20;;
7215;SDS011;3649;48.798;9.798;2022-09-02T17:11:41;1.27;;;1.17;;
7215;SDS011;3649;48.798;9.798;2022-09-02T17:14:11;1.30;;;1.30;;
7215;SDS011;3649;48.798;9.798;2022-09-02T17:16:43;1.20;;;1.10;;
7215;SDS011;3649;48.798;9.798;2022-09-02T17:19:12;1.87;;;1.23;;
7215;SDS011;3649;48.798;9.798;2022-09-02T17:21:43;1.70;;;1.60;;
7215;SDS011;3649;48.798;9.798;2022-09-02T17:24:12;1.40;;;1.30;;
7215;SDS011;3649;48.798;9.798;2022-09-02T17:26:41;2.90;;;1.50;;
7215;SDS011;3649;48.798;9.798;2022-09-02T17:29:13;3.47;;;1.67;;
7215;SDS011;3649;48.798;9.798;2022-09-02T17:32:02;2.87;;;1.37;;
7215;SDS011;3649;48.798;9.798;2022-09-02T17:34:29;1.70;;;1.60;;
7215;SDS011;3649;48.798;9.798;2022-09-02T17:36:58;4.63;;;1.27;;
7215;SDS011;3649;48.798;9.798;2022-09-02T17:39:25;1.10;;;1.00;;
7215;SDS011;3649;48.798;9.798;2022-09-02T17:41:52;5.50;;;1.50;;
7215;SDS011;3649;48.798;9.798;2022-09-02T17:44:20;1.83;;;1.30;;
7215;SDS011;3649;48.798;9.798;2022-09-02T17:46:48;5.07;;;1.50;;
7215;SDS011;3649;48.798;9.798;2022-09-02T17:49:16;2.43;;;1.70;;